Time;durP1;ratioP1;P1;durP2;ratioP2;P2;SDS_P1;SDS_P2;PMS_P1;PMS_P2;Temp;Humidity;BMP_temperature;BMP_pressure;BME280_temperature;BME280_humidity;BME280_pressure;Samples;Min_cycle;Max_cycle;Signal;HPM_P1;HPM_P2
2023/08/04 00:01:55;;;;;;;4.40;2.00;;;;;;;17.73;70.95;99657.65;103993;277;38446;-75
2023/08/04 00:04:29;;;;;;;3.50;1.50;;;;;;;17.72;70.80;99658.66;104005;277;39392;-75
2023/08/04 00:07:08;;;;;;;3.30;1.80;;;;;;;17.70;70.98;99658.62;104013;277;39676;-73
2023/08/04 00:09:41;;;;;;;2.60;2.00;;;;;;;17.68;70.87;99659.67;103982;277;39573;-74
2023/08/04 00:12:16;;;;;;;5.40;1.80;;;;;;;17.66;70.94;99663.70;103987;277;38292;-77
2023/08/04 00:14:51;;;;;;;4.30;2.50;;;;;;;17.66;71.14;99669.15;103992;277;39414;-76
2023/08/04 00:17:28;;;;;;;3.20;1.60;;;;;;;17.65;70.94;99673.31;104033;277;38690;-77
2023/08/04 00:20:03;;;;;;;5.30;1.70;;;;;;;17.63;71.09;99670.67;104026;277;39879;-76
2023/08/04 00:22:37;;;;;;;4.60;1.40;;;;;;;17.60;71.14;99672.98;104059;277;38236;-74
2023/08/04 00:25:15;;;;;;;2.70;1.60;;;;;;;17.59;71.17;99684.91;104005;277;39440;-74
2023/08/04 00:27:50;;;;;;;3.70;1.70;;;;;;;17.58;71.30;99692.03;104047;277;38480;-77
2023/08/04 00:30:27;;;;;;;2.90;1.50;;;;;;;17.57;71.30;99682.02;103827;277;39584;-76
2023/08/04 00:33:05;;;;;;;5.30;1.70;;;;;;;17.58;71.32;99674.03;103889;277;38714;-74
2023/08/04 00:35:42;;;;;;;2.70;1.50;;;;;;;17.57;71.31;99679.59;104008;277;39987;-75
2023/08/04 00:38:20;;;;;;;3.50;1.70;;;;;;;17.54;71.22;99678.00;104041;277;39683;-74
2023/08/04 00:41:00;;;;;;;2.90;1.40;;;;;;;17.51;71.32;99677.73;103998;277;38279;-75
2023/08/04 00:43:43;;;;;;;2.90;1.30;;;;;;;17.49;71.50;99680.52;103798;277;38367;-74
2023/08/04 00:46:19;;;;;;;3.50;1.50;;;;;;;17.47;71.49;99681.03;104023;277;38400;-76
2023/08/04 00:48:53;;;;;;;9.70;1.80;;;;;;;17.45;71.52;99679.55;104004;277;38260;-74
2023/08/04 00:51:30;;;;;;;2.60;1.40;;;;;;;17.45;71.62;99680.14;103827;277;38813;-76
2023/08/04 00:54:04;;;;;;;3.70;1.50;;;;;;;17.45;71.55;99678.70;103963;277;39412;-76
2023/08/04 00:56:39;;;;;;;3.50;1.60;;;;;;;17.44;71.65;99682.52;103831;279;38964;-74
2023/08/04 00:59:14;;;;;;;2.10;1.30;;;;;;;17.42;71.70;99682.98;103970;277;38250;-75
2023/08/04 01:01:51;;;;;;;3.60;2.10;;;;;;;17.40;71.77;99689.17;104009;277;39808;-74
2023/08/04 01:04:29;;;;;;;3.90;1.50;;;;;;;17.38;71.68;99691.95;104020;277;38410;-74
2023/08/04 01:07:14;;;;;;;3.50;1.30;;;;;;;17.35;71.81;99694.35;104024;277;38286;-75
2023/08/04 01:09:56;;;;;;;3.90;1.50;;;;;;;17.33;71.84;99693.28;103860;277;38406;-75
2023/08/04 01:12:42;;;;;;;4.90;1.40;;;;;;;17.31;71.97;99701.30;103849;277;38280;-74
2023/08/04 01:15:17;;;;;;;4.40;1.60;;;;;;;17.33;72.05;99704.35;104037;277;38242;-74
2023/08/04 01:17:54;;;;;;;3.00;1.70;;;;;;;17.34;72.25;99704.98;103950;278;38238;-76
2023/08/04 01:20:31;;;;;;;5.90;2.10;;;;;;;17.33;72.24;99708.08;103908;277;38456;-74
2023/08/04 01:23:06;;;;;;;3.80;1.50;;;;;;;17.32;72.11;99707.73;103912;279;39642;-76
2023/08/04 01:25:42;;;;;;;2.80;1.50;;;;;;;17.32;72.34;99703.92;104013;277;38356;-74
2023/08/04 01:28:20;;;;;;;4.70;1.70;;;;;;;17.30;72.39;99701.57;103843;277;38231;-76
2023/08/04 01:30:57;;;;;;;3.40;1.30;;;;;;;17.28;72.39;99703.13;104024;277;38344;-75
2023/08/04 01:33:32;;;;;;;3.50;1.50;;;;;;;17.28;72.53;99698.36;103881;277;38337;-76
2023/08/04 01:36:08;;;;;;;2.70;1.30;;;;;;;17.26;72.42;99696.59;103757;277;38390;-74
2023/08/04 01:38:44;;;;;;;3.00;1.40;;;;;;;17.23;72.49;99699.46;103791;277;38817;-76
2023/08/04 01:41:20;;;;;;;;;;;;;;;17.20;72.62;99699.84;104036;277;38505;-75
2023/08/04 01:43:56;;;;;;;3.50;1.50;;;;;;;17.14;72.77;99698.39;104008;277;38365;-74
2023/08/04 01:46:30;;;;;;;3.20;1.40;;;;;;;17.12;72.73;99699.29;103980;277;39451;-76
2023/08/04 01:49:04;;;;;;;4.40;1.40;;;;;;;17.09;72.84;99699.14;104002;277;38667;-75
2023/08/04 01:51:43;;;;;;;5.30;1.60;;;;;;;17.08;73.01;99703.45;103833;279;38397;-74
2023/08/04 01:54:19;;;;;;;4.30;1.60;;;;;;;17.06;73.12;99698.42;104034;277;38314;-74
2023/08/04 01:57:00;;;;;;;3.00;1.80;;;;;;;17.03;73.17;99701.88;104052;277;38211;-76
2023/08/04 01:59:40;;;;;;;2.40;1.20;;;;;;;17.01;73.42;99700.21;104006;277;38230;-76
2023/08/04 02:02:17;;;;;;;2.80;1.60;;;;;;;17.00;73.54;99699.23;104092;277;38420;-75
2023/08/04 02:04:51;;;;;;;3.90;1.50;;;;;;;17.00;73.60;99698.05;104031;277;38255;-75
2023/08/04 02:07:25;;;;;;;5.30;1.70;;;;;;;17.00;73.71;99701.42;104033;277;38493;-74
2023/08/04 02:10:02;;;;;;;2.90;1.70;;;;;;;17.00;73.74;99703.34;103857;277;39820;-74
2023/08/04 02:12:36;;;;;;;4.00;1.60;;;;;;;16.99;73.76;99704.98;103828;277;39395;-74
2023/08/04 02:15:14;;;;;;;2.00;1.40;;;;;;;16.97;73.78;99706.39;104002;277;39515;-74
2023/08/04 02:17:48;;;;;;;3.20;1.20;;;;;;;16.96;73.68;99710.16;104039;277;37243;-74
2023/08/04 02:20:22;;;;;;;3.90;1.30;;;;;;;16.94;73.69;99718.07;103983;277;38291;-73
2023/08/04 02:23:08;;;;;;;3.40;1.40;;;;;;;16.93;73.95;99719.70;104005;277;38840;-75
2023/08/04 02:25:42;;;;;;;3.60;1.90;;;;;;;16.90;74.02;99724.32;103988;277;38244;-75
2023/08/04 02:28:18;;;;;;;3.40;1.50;;;;;;;16.88;74.06;99722.70;103845;277;38487;-74
2023/08/04 02:30:53;;;;;;;2.30;1.20;;;;;;;16.86;74.26;99721.99;103959;277;39873;-74
2023/08/04 02:33:27;;;;;;;3.90;1.70;;;;;;;16.83;74.37;99731.55;103992;277;39939;-74
2023/08/04 02:36:12;;;;;;;2.60;1.30;;;;;;;16.84;74.40;99730.29;103873;277;174732;-74
2023/08/04 02:38:46;;;;;;;3.80;1.50;;;;;;;16.84;74.57;99726.90;104029;277;38459;-73
2023/08/04 02:41:25;;;;;;;4.10;1.60;;;;;;;16.82;74.57;99731.79;103892;278;38339;-74
2023/08/04 02:44:02;;;;;;;4.10;1.70;;;;;;;16.81;74.52;99735.61;103987;277;39419;-74
2023/08/04 02:46:38;;;;;;;2.40;1.10;;;;;;;16.79;74.60;99738.36;104055;277;38221;-76
2023/08/04 02:49:16;;;;;;;4.20;1.60;;;;;;;16.78;74.79;99740.95;103890;277;38591;-74
2023/08/04 02:51:52;;;;;;;4.20;1.80;;;;;;;16.79;74.65;99743.00;104058;277;38626;-75
2023/08/04 02:54:26;;;;;;;3.80;1.70;;;;;;;16.79;74.77;99751.25;104109;277;38381;-75
2023/08/04 02:57:01;;;;;;;5.80;1.70;;;;;;;16.81;74.88;99756.91;104075;277;39795;-73
2023/08/04 02:59:37;;;;;;;3.60;1.60;;;;;;;16.82;75.00;99751.75;104017;277;38628;-75
2023/08/04 03:02:14;;;;;;;3.40;1.30;;;;;;;16.83;74.90;99753.79;104066;277;38737;-74
2023/08/04 03:04:48;;;;;;;3.20;1.50;;;;;;;16.83;74.99;99753.05;104018;277;38243;-74
2023/08/04 03:07:24;;;;;;;3.00;1.70;;;;;;;16.86;75.11;99757.97;104021;277;38812;-74
2023/08/04 03:09:59;;;;;;;3.10;1.60;;;;;;;16.89;75.18;99767.92;104006;277;38436;-75
2023/08/04 03:12:36;;;;;;;2.80;1.30;;;;;;;16.90;75.06;99772.27;104011;277;39400;-76
2023/08/04 03:15:15;;;;;;;2.80;1.50;;;;;;;16.88;74.97;99778.97;104001;277;38736;-77
2023/08/04 03:17:49;;;;;;;3.20;1.40;;;;;;;16.86;74.94;99786.50;104038;277;38861;-74
2023/08/04 03:20:24;;;;;;;3.10;1.20;;;;;;;16.85;75.17;99787.43;104001;277;40098;-74
2023/08/04 03:22:58;;;;;;;3.60;1.30;;;;;;;16.86;75.26;99786.50;104023;277;39424;-74
2023/08/04 03:25:32;;;;;;;3.60;1.30;;;;;;;16.90;75.14;99790.04;104021;277;38278;-77
2023/08/04 03:28:06;;;;;;;2.50;1.40;;;;;;;16.95;75.23;99790.40;104038;277;39463;-73
2023/08/04 03:30:44;;;;;;;3.70;1.60;;;;;;;16.99;75.40;99798.54;103986;277;38239;-75
2023/08/04 03:33:21;;;;;;;4.30;1.60;;;;;;;17.02;75.45;99794.22;104037;277;38287;-75
2023/08/04 03:35:56;;;;;;;3.70;1.30;;;;;;;17.06;75.24;99802.27;103879;277;39296;-74
2023/08/04 03:38:38;;;;;;;5.00;1.50;;;;;;;17.12;75.27;99810.07;104067;277;39324;-74
2023/08/04 03:41:14;;;;;;;3.90;1.50;;;;;;;17.20;75.24;99807.96;104086;277;38515;-74
2023/08/04 03:43:51;;;;;;;3.70;1.60;;;;;;;17.26;75.01;99803.39;103526;277;701409;-73
2023/08/04 03:46:28;;;;;;;4.10;1.50;;;;;;;17.31;74.83;99803.91;104138;277;38460;-74
2023/08/04 03:49:04;;;;;;;2.70;1.50;;;;;;;17.35;74.67;99804.02;104045;277;38602;-75
2023/08/04 03:51:40;;;;;;;4.60;1.60;;;;;;;17.41;74.75;99806.52;104051;277;38412;-74
2023/08/04 03:54:16;;;;;;;2.80;1.70;;;;;;;17.51;74.66;99802.77;103833;277;38480;-73
2023/08/04 03:56:50;;;;;;;2.40;1.50;;;;;;;17.69;74.45;99800.33;104059;277;39853;-75
2023/08/04 03:59:28;;;;;;;2.50;1.20;;;;;;;17.93;74.74;99798.52;103976;277;38289;-73
2023/08/04 04:02:03;;;;;;;3.70;1.70;;;;;;;18.14;74.11;99799.52;104023;277;38244;-74
2023/08/04 04:04:37;;;;;;;4.50;1.20;;;;;;;18.35;73.81;99800.70;104024;277;38265;-74
2023/08/04 04:07:11;;;;;;;2.20;1.40;;;;;;;18.44;73.74;99806.31;104084;277;38515;-74
2023/08/04 04:09:45;;;;;;;4.90;1.50;;;;;;;18.69;74.90;99811.92;103973;277;40116;-74
2023/08/04 04:12:19;;;;;;;2.70;1.50;;;;;;;19.00;74.38;99808.69;104030;277;39420;-73
2023/08/04 04:14:53;;;;;;;4.40;1.50;;;;;;;19.08;72.27;99807.87;103978;277;38937;-73
2023/08/04 04:17:29;;;;;;;5.70;1.40;;;;;;;19.07;71.53;99808.34;104061;277;38427;-74
2023/08/04 04:20:12;;;;;;;2.60;1.50;;;;;;;19.05;70.88;99813.77;103774;277;41089;-74
2023/08/04 04:22:49;;;;;;;6.10;1.60;;;;;;;19.01;70.63;99814.66;104045;277;38423;-74
2023/08/04 04:25:28;;;;;;;4.90;1.30;;;;;;;18.97;70.50;99815.98;104107;277;38280;-74
2023/08/04 04:28:03;;;;;;;3.80;1.50;;;;;;;18.99;70.47;99819.77;104043;277;38244;-73
2023/08/04 04:30:38;;;;;;;2.80;1.30;;;;;;;19.03;70.44;99822.63;104001;277;38265;-73
2023/08/04 04:33:18;;;;;;;2.50;1.40;;;;;;;19.07;70.00;99826.36;103866;277;38235;-75
2023/08/04 04:35:55;;;;;;;2.80;1.40;;;;;;;19.13;69.89;99829.80;104011;277;39824;-75
2023/08/04 04:38:33;;;;;;;5.00;1.50;;;;;;;19.21;69.76;99828.76;104033;277;39413;-76
2023/08/04 04:41:12;;;;;;;2.40;1.20;;;;;;;19.30;69.58;99828.92;104045;277;38344;-75
2023/08/04 04:43:47;;;;;;;2.70;1.20;;;;;;;19.38;69.60;99834.57;103992;277;38463;-73
2023/08/04 04:46:21;;;;;;;4.10;1.90;;;;;;;19.44;69.23;99841.70;104008;277;39154;-77
2023/08/04 04:48:55;;;;;;;3.30;1.20;;;;;;;19.46;68.90;99847.38;104003;277;39590;-74
2023/08/04 04:51:31;;;;;;;2.80;1.30;;;;;;;19.50;68.96;99854.42;103811;279;39660;-74
2023/08/04 04:54:06;;;;;;;3.60;1.50;;;;;;;19.54;68.87;99856.76;104016;277;38228;-74
2023/08/04 04:56:41;;;;;;;2.50;1.20;;;;;;;19.60;68.93;99858.08;104001;277;40111;-74
2023/08/04 04:59:18;;;;;;;3.90;1.50;;;;;;;19.78;69.92;99861.66;103877;277;188452;-74
2023/08/04 05:01:52;;;;;;;3.20;1.20;;;;;;;20.23;70.65;99859.05;104041;277;39676;-73
2023/08/04 05:04:29;;;;;;;4.20;1.30;;;;;;;21.34;71.27;99859.69;103990;277;38394;-73
2023/08/04 05:07:03;;;;;;;3.50;1.20;;;;;;;22.86;68.80;99858.50;104058;277;38363;-74
2023/08/04 05:09:37;;;;;;;2.90;1.30;;;;;;;24.20;63.91;99859.73;103836;277;38253;-74
2023/08/04 05:12:16;;;;;;;3.70;1.30;;;;;;;25.46;59.76;99857.26;104037;277;38443;-75
2023/08/04 05:14:52;;;;;;;3.00;1.40;;;;;;;26.28;55.46;99857.91;104006;277;39245;-75
2023/08/04 05:17:26;;;;;;;2.80;1.10;;;;;;;26.60;53.08;99855.62;104075;277;39387;-75
2023/08/04 05:20:03;;;;;;;3.20;1.20;;;;;;;26.59;51.38;99852.24;104003;277;39446;-75
2023/08/04 05:22:37;;;;;;;3.00;1.40;;;;;;;26.38;51.08;99850.55;103975;277;38985;-75
2023/08/04 05:25:15;;;;;;;3.70;1.30;;;;;;;26.46;51.09;99856.95;103976;277;39693;-74
2023/08/04 05:27:55;;;;;;;3.50;1.30;;;;;;;26.50;50.42;99866.36;103854;277;38611;-75
2023/08/04 05:30:32;;;;;;;2.80;1.30;;;;;;;26.43;50.26;99867.31;104012;277;38400;-74
2023/08/04 05:33:06;;;;;;;2.50;1.40;;;;;;;26.27;49.88;99872.84;103861;277;174487;-74
2023/08/04 05:35:41;;;;;;;3.50;1.20;;;;;;;26.07;49.91;99875.02;103985;277;40002;-75
2023/08/04 05:38:15;;;;;;;3.60;1.50;;;;;;;25.76;50.05;99877.66;103989;277;38522;-75
2023/08/04 05:40:51;;;;;;;1.80;1.10;;;;;;;25.36;50.25;99881.07;104004;277;38462;-74
2023/08/04 05:43:25;;;;;;;5.20;1.60;;;;;;;25.00;50.51;99879.40;104034;277;38716;-74
2023/08/04 05:46:07;;;;;;;3.30;1.30;;;;;;;24.71;51.12;99874.75;103985;277;39649;-74
2023/08/04 05:48:41;;;;;;;3.60;1.40;;;;;;;24.48;52.23;99881.50;103765;277;39414;-74
2023/08/04 05:51:17;;;;;;;2.40;1.20;;;;;;;24.47;52.45;99878.41;104030;277;39660;-75
2023/08/04 05:53:53;;;;;;;5.70;1.40;;;;;;;24.49;52.47;99880.06;103982;277;39561;-76
2023/08/04 05:56:29;;;;;;;3.80;1.40;;;;;;;24.47;52.67;99885.10;103991;277;38396;-76
2023/08/04 05:59:06;;;;;;;3.50;1.10;;;;;;;24.52;53.02;99883.59;104029;277;39414;-75
2023/08/04 06:01:40;;;;;;;3.10;1.20;;;;;;;25.01;53.47;99886.27;104047;277;38334;-76
2023/08/04 06:04:17;;;;;;;5.70;1.40;;;;;;;25.75;52.24;99879.86;104008;274;38237;-76
2023/08/04 06:06:52;;;;;;;;;;;;;;;26.57;50.39;99875.20;104079;277;39426;-76
2023/08/04 06:09:26;;;;;;;4.40;1.30;;;;;;;27.10;48.91;99875.98;104001;277;38274;-74
2023/08/04 06:12:01;;;;;;;2.40;1.00;;;;;;;27.86;48.31;99883.23;103830;279;38256;-75
2023/08/04 06:14:34;;;;;;;2.80;1.10;;;;;;;28.69;46.36;99885.62;104042;277;38473;-75
2023/08/04 06:17:12;;;;;;;3.00;1.00;;;;;;;29.74;45.15;99878.33;103838;278;38641;-75
2023/08/04 06:19:48;;;;;;;2.30;1.10;;;;;;;30.42;41.78;99879.06;104011;277;38243;-74
2023/08/04 06:22:27;;;;;;;4.10;0.90;;;;;;;30.27;40.88;99879.31;104007;277;38362;-74
2023/08/04 06:25:05;;;;;;;2.50;0.80;;;;;;;30.00;40.93;99883.78;104008;277;39433;-74
2023/08/04 06:27:41;;;;;;;4.10;1.10;;;;;;;29.62;40.72;99897.68;103384;277;888303;-75
2023/08/04 06:30:18;;;;;;;2.20;0.90;;;;;;;29.07;41.02;99895.57;103834;277;38375;-76
2023/08/04 06:32:52;;;;;;;2.10;0.90;;;;;;;28.55;41.70;99896.16;104034;277;39612;-75
2023/08/04 06:35:31;;;;;;;3.10;1.20;;;;;;;28.12;42.74;99893.06;103789;277;38301;-75
2023/08/04 06:38:08;;;;;;;4.40;0.90;;;;;;;27.77;43.05;99896.29;104033;277;38419;-75
2023/08/04 06:40:46;;;;;;;4.50;1.00;;;;;;;27.54;44.27;99897.50;103978;277;39455;-75
2023/08/04 06:43:27;;;;;;;2.20;0.90;;;;;;;27.31;44.28;99897.40;104042;277;39293;-75
2023/08/04 06:45:59;;;;;;;;;;;;;;;27.40;45.05;99900.79;104002;277;39994;-75
2023/08/04 06:48:34;;;;;;;1.90;0.90;;;;;;;27.51;44.45;99901.69;103880;277;174424;-75
2023/08/04 06:51:18;;;;;;;3.10;1.20;;;;;;;27.55;44.79;99901.52;104014;277;38596;-73
2023/08/04 06:53:55;;;;;;;6.10;2.10;;;;;;;27.79;44.96;99905.40;104056;277;38220;-73
2023/08/04 06:56:29;;;;;;;3.60;0.90;;;;;;;28.08;44.54;99907.86;104066;277;38230;-73
2023/08/04 06:59:03;;;;;;;1.40;0.70;;;;;;;28.17;43.62;99911.11;104026;277;39527;-73
2023/08/04 07:01:37;;;;;;;3.90;1.20;;;;;;;28.11;43.36;99903.36;104019;277;39900;-74
2023/08/04 07:04:11;;;;;;;4.70;1.20;;;;;;;27.97;43.59;99898.65;104022;277;38270;-74
2023/08/04 07:06:50;;;;;;;3.50;1.10;;;;;;;27.79;43.70;99907.22;104033;277;39464;-73
2023/08/04 07:09:25;;;;;;;2.90;1.20;;;;;;;27.64;43.99;99913.52;103985;277;39395;-73
2023/08/04 07:11:59;;;;;;;2.10;1.00;;;;;;;27.43;44.05;99917.64;104016;277;39966;-73
2023/08/04 07:14:33;;;;;;;2.80;1.10;;;;;;;27.22;44.91;99926.60;104019;277;38534;-73
2023/08/04 07:17:11;;;;;;;2.40;0.80;;;;;;;27.07;44.92;99931.73;103997;277;38508;-73
2023/08/04 07:19:51;;;;;;;2.30;0.70;;;;;;;26.83;44.82;99929.70;104001;277;38252;-73
2023/08/04 07:22:25;;;;;;;1.60;0.80;;;;;;;26.60;45.38;99932.85;104003;277;38241;-73
2023/08/04 07:25:00;;;;;;;1.50;0.80;;;;;;;26.35;45.56;99934.56;103815;277;40103;-73
2023/08/04 07:27:34;;;;;;;1.40;0.90;;;;;;;26.12;45.98;99935.12;104026;277;38522;-73
2023/08/04 07:30:13;;;;;;;2.60;0.90;;;;;;;26.13;46.67;99936.75;103967;277;38996;-73
2023/08/04 07:32:48;;;;;;;2.30;1.20;;;;;;;26.10;46.88;99940.56;103988;277;39205;-74
2023/08/04 07:35:22;;;;;;;1.70;0.80;;;;;;;25.95;46.87;99950.06;103988;277;39470;-74
2023/08/04 07:37:57;;;;;;;2.20;1.00;;;;;;;25.76;47.21;99952.81;104034;277;38272;-73
2023/08/04 07:40:35;;;;;;;1.70;0.90;;;;;;;25.59;47.68;99955.38;103984;277;39433;-73
2023/08/04 07:43:13;;;;;;;2.40;1.00;;;;;;;25.43;47.67;99954.25;103865;279;38373;-74
2023/08/04 07:45:46;;;;;;;;;;;;;;;25.30;47.96;99961.01;104052;277;38233;-74
2023/08/04 07:48:23;;;;;;;3.50;1.00;;;;;;;25.16;48.46;99976.72;104009;265;38360;-74
2023/08/04 07:50:58;;;;;;;1.30;0.90;;;;;;;25.06;48.69;99976.41;104036;277;38570;-74
2023/08/04 07:53:37;;;;;;;3.10;0.70;;;;;;;24.88;49.11;99975.58;103247;277;891767;-75
2023/08/04 07:56:13;;;;;;;1.40;0.80;;;;;;;24.76;49.40;99977.59;104087;277;38246;-75
2023/08/04 07:58:48;;;;;;;1.80;0.80;;;;;;;24.68;50.04;99980.62;103800;277;39229;-72
2023/08/04 08:01:24;;;;;;;1.80;0.70;;;;;;;24.73;50.65;99985.30;104048;277;38372;-73
2023/08/04 08:04:04;;;;;;;2.40;0.90;;;;;;;24.87;51.05;99981.05;104069;277;38264;-73
2023/08/04 08:06:38;;;;;;;2.80;1.00;;;;;;;25.06;51.13;99983.73;103995;277;39404;-73
2023/08/04 08:09:17;;;;;;;1.90;0.80;;;;;;;25.15;50.24;99983.11;104021;277;38362;-74
2023/08/04 08:11:51;;;;;;;2.70;1.00;;;;;;;25.14;50.20;99980.84;103817;277;38400;-74
2023/08/04 08:14:29;;;;;;;1.80;0.90;;;;;;;25.14;49.98;99977.15;104051;277;38792;-74
2023/08/04 08:17:03;;;;;;;1.60;0.70;;;;;;;25.32;50.84;99983.61;104034;277;39641;-75
2023/08/04 08:19:40;;;;;;;1.60;0.90;;;;;;;25.71;50.62;99978.52;104002;277;39645;-74
2023/08/04 08:22:16;;;;;;;1.10;0.80;;;;;;;26.02;49.94;99990.39;104054;277;38571;-74
2023/08/04 08:24:58;;;;;;;3.30;0.70;;;;;;;26.80;49.23;99991.77;104019;277;38276;-75
2023/08/04 08:27:32;;;;;;;2.60;0.70;;;;;;;27.94;47.50;99994.54;104053;277;38308;-75
2023/08/04 08:30:11;;;;;;;2.40;0.70;;;;;;;28.79;45.59;99991.81;104029;265;38361;-75
2023/08/04 08:32:45;;;;;;;1.60;0.60;;;;;;;29.24;43.22;99995.43;104042;277;39449;-77
2023/08/04 08:35:20;;;;;;;1.80;0.60;;;;;;;29.55;42.50;100001.20;104014;277;38268;-77
2023/08/04 08:37:54;;;;;;;2.20;0.60;;;;;;;29.99;41.34;100006.80;104012;277;39397;-75
2023/08/04 08:40:29;;;;;;;1.90;0.70;;;;;;;30.07;40.21;100011.66;104026;277;38230;-75
2023/08/04 08:43:03;;;;;;;1.10;0.60;;;;;;;30.15;39.99;100014.73;104066;277;39280;-75
2023/08/04 08:45:38;;;;;;;2.40;0.50;;;;;;;30.22;40.19;100014.85;103999;277;39064;-75
2023/08/04 08:48:13;;;;;;;3.10;0.70;;;;;;;30.86;40.35;100013.92;104035;277;38534;-75
2023/08/04 08:50:55;;;;;;;1.50;0.70;;;;;;;31.48;38.33;100010.52;103966;277;38401;-75
2023/08/04 08:53:33;;;;;;;1.70;0.80;;;;;;;31.66;37.70;100007.61;104011;277;38266;-75
2023/08/04 08:56:10;;;;;;;2.40;0.70;;;;;;;31.89;37.48;100001.06;103836;279;38417;-75
2023/08/04 08:58:45;;;;;;;3.50;1.00;;;;;;;32.21;36.88;100005.80;103970;277;39548;-76
2023/08/04 09:01:19;;;;;;;3.30;0.80;;;;;;;32.94;36.30;100009.66;104026;277;39239;-76
2023/08/04 09:03:55;;;;;;;1.30;0.60;;;;;;;33.74;34.90;100007.89;104002;277;38718;-77
2023/08/04 09:06:29;;;;;;;2.30;0.50;;;;;;;34.15;33.27;100003.49;104011;277;39544;-76
2023/08/04 09:09:05;;;;;;;2.00;0.60;;;;;;;34.46;32.91;100006.71;104028;277;38544;-76
2023/08/04 09:11:41;;;;;;;2.10;0.70;;;;;;;34.33;32.34;100003.00;103838;277;39189;-77
2023/08/04 09:14:16;;;;;;;1.60;0.80;;;;;;;33.80;32.84;100011.14;104007;277;39814;-77
2023/08/04 09:16:52;;;;;;;2.30;0.70;;;;;;;33.65;32.52;100020.83;104054;277;38235;-76
2023/08/04 09:19:30;;;;;;;1.60;0.60;;;;;;;33.50;32.29;100030.42;104015;277;39945;-76
2023/08/04 09:22:05;;;;;;;3.10;0.60;;;;;;;33.44;32.43;100032.80;104086;277;38517;-76
2023/08/04 09:24:39;;;;;;;3.10;0.90;;;;;;;33.28;32.52;100032.08;104066;277;39940;-76
2023/08/04 09:27:28;;;;;;;3.90;0.90;;;;;;;33.07;33.37;100034.23;104039;277;38262;-77
2023/08/04 09:30:04;;;;;;;1.60;0.70;;;;;;;33.14;33.19;100033.80;103953;277;174191;-76
2023/08/04 09:32:43;;;;;;;2.40;0.80;;;;;;;33.01;33.40;100034.02;103478;277;889772;-76
2023/08/04 09:35:17;;;;;;;2.00;0.80;;;;;;;32.93;33.62;100026.34;104038;277;38220;-76
2023/08/04 09:37:58;;;;;;;4.50;0.80;;;;;;;32.88;33.94;100025.98;104061;277;38526;-76
2023/08/04 09:40:41;;;;;;;1.60;0.80;;;;;;;32.80;33.38;100020.81;103997;277;38351;-76
2023/08/04 09:43:20;;;;;;;2.90;0.70;;;;;;;32.70;33.91;100021.99;104010;277;38755;-76
2023/08/04 09:46:04;;;;;;;3.00;0.60;;;;;;;32.60;34.00;100022.67;103975;277;38301;-75
2023/08/04 09:48:45;;;;;;;2.10;0.50;;;;;;;32.48;33.91;100025.27;103981;277;38527;-75
2023/08/04 09:51:21;;;;;;;5.30;0.80;;;;;;;32.27;34.13;100026.25;104001;277;40186;-76
2023/08/04 09:54:00;;;;;;;3.50;0.90;;;;;;;32.00;34.02;100029.52;104015;277;38550;-76
2023/08/04 09:56:41;;;;;;;5.00;1.00;;;;;;;31.66;34.56;100033.66;103886;277;38593;-76
2023/08/04 09:59:21;;;;;;;5.10;0.80;;;;;;;31.35;34.95;100040.16;104000;277;38320;-76
2023/08/04 10:01:56;;;;;;;1.00;0.70;;;;;;;31.17;34.97;100035.44;104024;277;38248;-76
2023/08/04 10:04:37;;;;;;;7.50;1.20;;;;;;;31.01;35.06;100034.14;103979;277;39485;-75
2023/08/04 10:07:17;;;;;;;1.10;0.60;;;;;;;30.93;35.46;100031.77;104025;277;38505;-77
2023/08/04 10:09:58;;;;;;;2.70;0.80;;;;;;;30.85;35.35;100030.77;104026;277;39501;-76
2023/08/04 10:12:37;;;;;;;4.40;0.90;;;;;;;30.81;36.18;100032.36;104036;274;38515;-77
2023/08/04 10:15:15;;;;;;;4.60;1.00;;;;;;;30.84;35.86;100030.42;104008;277;38413;-76
2023/08/04 10:17:49;;;;;;;1.10;0.60;;;;;;;30.68;34.88;100030.42;103998;277;38276;-76
2023/08/04 10:20:24;;;;;;;1.90;0.70;;;;;;;30.59;35.96;100031.63;103981;275;38347;-75
2023/08/04 10:22:58;;;;;;;1.60;0.80;;;;;;;30.65;36.42;100035.38;104028;277;39449;-75
2023/08/04 10:25:35;;;;;;;2.80;0.70;;;;;;;30.51;35.87;100045.23;103993;277;38488;-75
2023/08/04 10:28:11;;;;;;;2.00;0.80;;;;;;;30.27;35.93;100036.70;104030;277;38077;-76
2023/08/04 10:30:45;;;;;;;2.40;0.90;;;;;;;30.11;35.96;100033.59;103994;277;39449;-76
2023/08/04 10:33:25;;;;;;;1.10;0.70;;;;;;;29.98;36.58;100037.76;104011;275;38388;-76
2023/08/04 10:36:17;;;;;;;2.90;0.90;;;;;;;29.80;36.91;100038.09;103827;277;39436;-75
2023/08/04 10:38:54;;;;;;;3.40;0.90;;;;;;;29.65;37.43;100038.60;104021;277;38415;-76
2023/08/04 10:41:29;;;;;;;2.30;0.80;;;;;;;29.71;37.43;100039.14;104002;277;38284;-76
2023/08/04 10:44:08;;;;;;;2.90;0.90;;;;;;;29.65;37.48;100033.18;103969;277;39941;-76
2023/08/04 10:46:42;;;;;;;4.60;1.00;;;;;;;29.51;37.61;100031.71;104051;277;38882;-76
2023/08/04 10:49:19;;;;;;;2.20;1.00;;;;;;;29.34;37.86;100042.39;103854;279;38823;-75
2023/08/04 10:51:56;;;;;;;2.00;0.90;;;;;;;29.15;38.38;100048.61;104158;277;38609;-76
2023/08/04 10:54:30;;;;;;;2.40;1.10;;;;;;;28.97;38.41;100053.04;104002;277;38043;-76
2023/08/04 10:57:05;;;;;;;2.60;0.80;;;;;;;28.78;38.75;100050.71;103993;277;38295;-76
2023/08/04 10:59:41;;;;;;;3.10;0.80;;;;;;;28.63;39.00;100054.57;104011;277;38237;-76
2023/08/04 11:02:19;;;;;;;1.30;0.60;;;;;;;28.47;39.12;100057.38;104019;277;39920;-74
2023/08/04 11:04:56;;;;;;;1.40;0.90;;;;;;;28.39;39.12;100061.19;103983;265;38389;-77
2023/08/04 11:07:30;;;;;;;2.30;0.90;;;;;;;28.50;39.48;100062.23;104070;277;38936;-76
2023/08/04 11:10:08;;;;;;;3.70;0.60;;;;;;;28.60;39.89;100062.39;104000;277;38266;-76
2023/08/04 11:12:42;;;;;;;4.40;1.00;;;;;;;28.61;39.66;100063.58;104037;277;39484;-76
2023/08/04 11:15:19;;;;;;;4.50;0.80;;;;;;;28.73;39.95;100061.95;103980;277;39839;-76
2023/08/04 11:17:56;;;;;;;2.20;0.90;;;;;;;28.91;40.12;100061.05;103982;277;38790;-76
2023/08/04 11:20:33;;;;;;;3.20;0.80;;;;;;;29.07;39.99;100058.91;104042;277;38256;-75
2023/08/04 11:23:10;;;;;;;4.60;0.50;;;;;;;29.23;39.72;100059.91;103833;279;38753;-76
2023/08/04 11:25:48;;;;;;;2.20;0.90;;;;;;;29.33;38.99;100063.33;104004;277;39400;-76
2023/08/04 11:28:26;;;;;;;1.10;0.70;;;;;;;29.41;38.85;100061.51;104013;277;38965;-72
2023/08/04 11:31:13;;;;;;;1.60;0.80;;;;;;;29.39;38.33;100057.05;103995;277;39916;-71
2023/08/04 11:33:48;;;;;;;1.60;0.70;;;;;;;29.43;38.67;100061.09;103959;277;38647;-71
2023/08/04 11:36:22;;;;;;;2.20;0.80;;;;;;;29.43;38.12;100057.95;104015;277;38640;-73
2023/08/04 11:38:57;;;;;;;2.20;1.00;;;;;;;29.43;38.29;100055.83;103992;277;39707;-76
2023/08/04 11:41:31;;;;;;;2.50;0.90;;;;;;;29.48;38.74;100060.03;104004;277;39665;-76
2023/08/04 11:44:05;;;;;;;1.50;0.90;;;;;;;29.60;38.42;100057.21;103352;275;683734;-75
2023/08/04 11:46:41;;;;;;;2.70;0.90;;;;;;;29.65;38.01;100055.99;103766;277;41551;-75
2023/08/04 11:49:16;;;;;;;3.10;1.10;;;;;;;29.66;38.13;100061.62;104012;277;38468;-75
2023/08/04 11:51:50;;;;;;;2.90;1.00;;;;;;;29.56;38.05;100053.92;103812;279;38233;-75
2023/08/04 11:54:26;;;;;;;3.20;0.70;;;;;;;29.52;37.84;100052.79;103822;267;39371;-75
2023/08/04 11:57:03;;;;;;;2.40;1.00;;;;;;;29.53;37.64;100046.37;104042;277;39402;-75
2023/08/04 11:59:51;;;;;;;1.00;0.70;;;;;;;29.51;38.22;100045.81;103721;277;174419;-75
2023/08/04 12:02:26;;;;;;;2.80;1.20;;;;;;;29.50;37.32;100052.13;103999;277;39219;-75
2023/08/04 12:05:13;;;;;;;1.40;0.70;;;;;;;29.45;37.49;100046.73;104000;277;38505;-76
2023/08/04 12:07:47;;;;;;;1.50;0.70;;;;;;;29.32;37.05;100052.13;104033;277;38230;-75
2023/08/04 12:10:30;;;;;;;1.90;0.80;;;;;;;29.10;37.45;100056.09;103817;277;38419;-75
2023/08/04 12:13:09;;;;;;;1.90;0.80;;;;;;;28.99;37.94;100057.21;104006;277;38445;-75
2023/08/04 12:16:00;;;;;;;1.20;0.80;;;;;;;28.90;38.33;100056.19;104012;277;39486;-75